createdAt,value
2018-03-18T00:00:42.352Z,-2.50
2018-03-18T00:01:45.314Z,-2.40
2018-03-18T00:02:49.785Z,-2.40
2018-03-18T00:03:52.255Z,-2.40
2018-03-18T00:04:54.787Z,-2.40
2018-03-18T00:05:58.054Z,-2.40
2018-03-18T00:07:00.575Z,-2.50
2018-03-18T00:08:03.912Z,-2.40
2018-03-18T00:09:06.410Z,-2.40
2018-03-18T00:10:09.685Z,-2.40
2018-03-18T00:11:12.188Z,-2.40
2018-03-18T00:12:15.454Z,-2.40
2018-03-18T00:13:18.772Z,-2.40
2018-03-18T00:14:21.279Z,-2.40
2018-03-18T00:15:23.765Z,-2.40
2018-03-18T00:16:26.485Z,-2.50
2018-03-18T00:17:28.972Z,-2.40
2018-03-18T00:18:32.640Z,-2.40
2018-03-18T00:19:35.921Z,-2.50
2018-03-18T00:20:39.198Z,-2.50
2018-03-18T00:21:41.715Z,-2.50
2018-03-18T00:22:44.313Z,-2.50
2018-03-18T00:23:46.797Z,-2.50
2018-03-18T00:24:49.285Z,-2.50
2018-03-18T00:25:51.772Z,-2.50
2018-03-18T00:26:55.031Z,-2.50
2018-03-18T00:27:57.520Z,-2.50
2018-03-18T00:29:00.776Z,-2.50
2018-03-18T00:30:03.270Z,-2.50
2018-03-18T00:31:05.774Z,-2.50
2018-03-18T00:32:08.272Z,-2.50
2018-03-18T00:33:10.873Z,-2.50
2018-03-18T00:34:13.348Z,-2.50
2018-03-18T00:35:15.986Z,-2.50
2018-03-18T00:36:18.505Z,-2.50
2018-03-18T00:37:21.868Z,-2.50
2018-03-18T00:48:09.389Z,-2.50
2018-03-18T00:49:11.974Z,-2.60
2018-03-18T00:50:15.703Z,-2.60
2018-03-18T00:51:29.907Z,-2.60
2018-03-18T00:52:32.380Z,-2.60
2018-03-18T00:53:34.864Z,-2.60
2018-03-18T00:54:37.380Z,-2.60
2018-03-18T00:55:39.860Z,-2.50
2018-03-18T00:56:42.403Z,-2.50
2018-03-18T00:57:44.908Z,-2.60
2018-03-18T00:58:47.395Z,-2.60
2018-03-18T00:59:49.893Z,-2.60
2018-03-18T01:00:52.375Z,-2.60
2018-03-18T01:01:54.908Z,-2.50
2018-03-18T01:02:57.403Z,-2.60
2018-03-18T01:03:59.897Z,-2.50
2018-03-18T01:05:02.371Z,-2.60
2018-03-18T01:06:04.850Z,-2.60
2018-03-18T01:07:08.114Z,-2.60
2018-03-18T01:08:10.677Z,-2.60
2018-03-18T01:09:13.313Z,-2.60
2018-03-18T01:10:15.790Z,-2.60
2018-03-18T01:11:18.270Z,-2.70
2018-03-18T01:12:20.781Z,-2.70
2018-03-18T01:13:23.297Z,-2.70
2018-03-18T01:14:25.783Z,-2.70
2018-03-18T01:15:28.301Z,-2.70
2018-03-18T01:16:30.874Z,-2.70
2018-03-18T01:17:33.412Z,-2.80
2018-03-18T01:18:35.911Z,-2.80
2018-03-18T01:19:38.401Z,-2.80
2018-03-18T01:20:41.644Z,-2.80
2018-03-18T01:21:44.126Z,-2.80
2018-03-18T01:22:46.612Z,-2.90
2018-03-18T01:23:49.152Z,-2.90
2018-03-18T01:24:52.865Z,-2.90
2018-03-18T01:25:55.350Z,-2.90
2018-03-18T01:26:57.824Z,-2.90
2018-03-18T01:28:00.287Z,-2.90
2018-03-18T01:29:02.774Z,-2.90
2018-03-18T01:30:06.044Z,-2.90
2018-03-18T01:31:08.547Z,-2.90
2018-03-18T01:32:11.808Z,-2.90
2018-03-18T01:33:14.347Z,-2.90
2018-03-18T01:34:16.825Z,-2.90
2018-03-18T01:35:19.302Z,-2.90
2018-03-18T01:36:21.827Z,-2.90
2018-03-18T01:37:25.024Z,-3.00
2018-03-18T01:38:27.509Z,-3.00
2018-03-18T01:39:29.990Z,-2.90
2018-03-18T01:40:32.511Z,-2.90
2018-03-18T01:41:35.757Z,-3.00
2018-03-18T01:42:38.266Z,-3.00
2018-03-18T01:43:41.506Z,-2.90
2018-03-18T01:44:44.025Z,-2.90
2018-03-18T01:45:47.282Z,-2.90
2018-03-18T01:46:49.760Z,-2.90
2018-03-18T01:47:52.234Z,-2.90
2018-03-18T01:48:54.709Z,-3.00
2018-03-18T01:49:57.218Z,-3.00
2018-03-18T01:50:59.702Z,-2.90
2018-03-18T01:52:02.278Z,-2.90
2018-03-18T01:53:16.574Z,-3.00
2018-03-18T01:54:19.824Z,-3.00
2018-03-18T01:55:22.303Z,-3.00
2018-03-18T01:56:24.792Z,-3.00
2018-03-18T01:57:27.269Z,-3.00
2018-03-18T01:58:29.743Z,-3.00
2018-03-18T01:59:32.258Z,-3.10
2018-03-18T02:00:34.743Z,-3.00
2018-03-18T02:01:37.228Z,-3.00
2018-03-18T02:02:39.716Z,-3.10
2018-03-18T02:03:42.194Z,-3.00
2018-03-18T02:04:44.683Z,-3.10
2018-03-18T02:05:47.949Z,-3.00
2018-03-18T02:06:50.453Z,-3.00
2018-03-18T02:07:52.942Z,-3.00
2018-03-18T02:08:55.415Z,-3.00
2018-03-18T02:09:57.890Z,-3.00
2018-03-18T02:11:00.428Z,-3.00
2018-03-18T02:12:03.869Z,-3.00
2018-03-18T02:13:06.339Z,-3.00
2018-03-18T02:14:08.832Z,-3.00
2018-03-18T02:15:11.344Z,-3.00
2018-03-18T02:16:13.824Z,-3.00
2018-03-18T02:17:16.358Z,-3.00
2018-03-18T02:18:19.592Z,-3.00
2018-03-18T02:19:22.070Z,-3.00
2018-03-18T02:20:25.373Z,-3.00
2018-03-18T02:21:27.893Z,-3.00
2018-03-18T02:22:31.136Z,-3.00
2018-03-18T02:23:33.632Z,-3.10
2018-03-18T02:24:36.867Z,-3.10
2018-03-18T02:25:39.332Z,-3.10
2018-03-18T02:26:41.856Z,-3.10
2018-03-18T02:27:44.342Z,-3.10
2018-03-18T02:28:47.605Z,-3.10
2018-03-18T02:29:50.089Z,-3.10
2018-03-18T02:30:52.569Z,-3.10
2018-03-18T02:31:55.830Z,-3.10
2018-03-18T02:32:58.309Z,-3.10
2018-03-18T02:34:01.195Z,-3.10
2018-03-18T02:35:03.666Z,-3.20
2018-03-18T02:36:06.928Z,-3.20
2018-03-18T02:37:09.446Z,-3.20
2018-03-18T02:38:12.694Z,-3.20
2018-03-18T02:39:15.267Z,-3.20
2018-03-18T02:40:17.768Z,-3.20
2018-03-18T02:41:21.041Z,-3.20
2018-03-18T02:42:23.511Z,-3.20
2018-03-18T02:43:26.021Z,-3.30
2018-03-18T02:44:28.513Z,-3.30
2018-03-18T02:45:30.997Z,-3.30
2018-03-18T02:46:33.500Z,-3.30
2018-03-18T02:47:36.749Z,-3.30
2018-03-18T02:48:39.240Z,-3.30
2018-03-18T02:49:41.721Z,-3.30
2018-03-18T02:50:44.227Z,-3.30
2018-03-18T02:51:46.719Z,-3.30
2018-03-18T02:52:49.208Z,-3.30
2018-03-18T02:53:51.690Z,-3.30
2018-03-18T02:54:54.192Z,-3.30
2018-03-18T02:55:56.690Z,-3.40
2018-03-18T02:56:59.223Z,-3.40
2018-03-18T02:58:01.745Z,-3.40
2018-03-18T02:59:04.235Z,-3.40
2018-03-18T03:00:06.708Z,-3.40
2018-03-18T03:01:09.190Z,-3.40
2018-03-18T03:02:11.660Z,-3.40
2018-03-18T03:03:14.390Z,-3.40
2018-03-18T03:04:16.858Z,-3.40
2018-03-18T03:05:20.108Z,-3.40
2018-03-18T03:06:23.417Z,-3.40
2018-03-18T03:07:26.026Z,-3.40
2018-03-18T03:08:28.559Z,-3.40
2018-03-18T03:09:31.811Z,-3.40
2018-03-18T03:10:34.300Z,-3.40
2018-03-18T03:11:37.557Z,-3.40
2018-03-18T03:12:40.071Z,-3.40
2018-03-18T03:13:43.333Z,-3.40
2018-03-18T03:14:45.832Z,-3.40
2018-03-18T03:15:48.332Z,-3.40
2018-03-18T03:16:50.829Z,-3.40
2018-03-18T03:17:53.314Z,-3.30
2018-03-18T03:18:55.800Z,-3.30
2018-03-18T03:19:58.281Z,-3.40
2018-03-18T03:21:01.592Z,-3.40
2018-03-18T03:22:04.060Z,-3.40
2018-03-18T03:23:06.561Z,-3.40
2018-03-18T03:24:09.090Z,-3.40
2018-03-18T03:25:12.339Z,-3.40
2018-03-18T03:26:14.814Z,-3.40
2018-03-18T03:27:17.340Z,-3.40
2018-03-18T03:28:19.899Z,-3.50
2018-03-18T03:29:22.381Z,-3.40
2018-03-18T03:30:24.866Z,-3.50
2018-03-18T03:31:27.365Z,-3.50
2018-03-18T03:32:30.607Z,-3.50
2018-03-18T03:33:33.098Z,-3.50
2018-03-18T03:34:35.611Z,-3.50
2018-03-18T03:35:38.085Z,-3.50
2018-03-18T03:36:40.563Z,-3.50
2018-03-18T03:37:43.056Z,-3.50
2018-03-18T03:38:45.562Z,-3.50
2018-03-18T03:39:48.824Z,-3.60
2018-03-18T03:40:57.203Z,-3.60
2018-03-18T03:41:59.713Z,-3.60
2018-03-18T03:43:02.231Z,-3.60
2018-03-18T03:44:04.728Z,-3.60
2018-03-18T03:45:08.014Z,-3.60
2018-03-18T03:46:10.510Z,-3.60
2018-03-18T03:47:13.796Z,-3.70
2018-03-18T03:48:16.303Z,-3.70
2018-03-18T03:49:18.827Z,-3.70
2018-03-18T03:50:21.353Z,-3.70
2018-03-18T03:51:23.850Z,-3.70
2018-03-18T03:52:27.116Z,-3.70
2018-03-18T03:53:29.607Z,-3.70
2018-03-18T03:54:32.872Z,-3.80
2018-03-18T03:55:35.393Z,-3.80
2018-03-18T03:56:37.874Z,-3.80
2018-03-18T03:57:40.392Z,-3.80
2018-03-18T03:58:42.867Z,-3.80
2018-03-18T03:59:46.126Z,-3.80
2018-03-18T04:00:48.644Z,-3.80
2018-03-18T04:01:51.142Z,-3.80
2018-03-18T04:02:53.654Z,-3.80
2018-03-18T04:03:56.160Z,-3.80
2018-03-18T04:04:58.917Z,-3.80
2018-03-18T04:06:02.176Z,-3.80
2018-03-18T04:07:04.679Z,-3.80
2018-03-18T04:08:07.190Z,-3.80
2018-03-18T04:09:09.696Z,-3.80
2018-03-18T04:10:12.191Z,-3.90
2018-03-18T04:11:15.450Z,-3.80
2018-03-18T04:12:17.947Z,-3.80
2018-03-18T04:13:21.213Z,-3.80
2018-03-18T04:14:24.480Z,-3.80
2018-03-18T04:15:26.987Z,-3.80
2018-03-18T04:16:30.271Z,-3.80
2018-03-18T04:17:33.583Z,-3.80
2018-03-18T04:18:36.125Z,-3.80
2018-03-18T04:19:38.616Z,-3.80
2018-03-18T04:20:41.931Z,-3.80
2018-03-18T04:21:44.458Z,-3.80
2018-03-18T04:22:46.941Z,-3.70
2018-03-18T04:23:50.220Z,-3.80
2018-03-18T04:24:52.736Z,-3.80
2018-03-18T04:25:55.240Z,-3.80
2018-03-18T04:26:57.746Z,-3.80
2018-03-18T04:28:01.013Z,-3.80
2018-03-18T04:29:03.525Z,-3.80
2018-03-18T04:30:06.040Z,-3.70
2018-03-18T04:31:08.915Z,-3.70
2018-03-18T04:32:11.441Z,-3.70
2018-03-18T04:33:13.946Z,-3.70
2018-03-18T04:34:16.442Z,-3.70
2018-03-18T04:35:18.975Z,-3.70
2018-03-18T04:36:21.477Z,-3.70
2018-03-18T04:37:23.998Z,-3.70
2018-03-18T04:38:26.494Z,-3.70
2018-03-18T04:39:29.057Z,-3.70
2018-03-18T04:40:31.560Z,-3.70
2018-03-18T04:41:34.059Z,-3.70
2018-03-18T04:42:36.580Z,-3.70
2018-03-18T04:43:39.079Z,-3.70
2018-03-18T04:44:41.584Z,-3.70
2018-03-18T04:45:44.077Z,-3.70
2018-03-18T04:46:46.597Z,-3.70
2018-03-18T04:47:49.093Z,-3.80
2018-03-18T04:48:51.614Z,-3.70
2018-03-18T04:49:54.094Z,-3.80
2018-03-18T04:50:56.566Z,-3.80
2018-03-18T04:51:59.105Z,-3.80
2018-03-18T04:53:01.585Z,-3.70
2018-03-18T04:54:04.064Z,-3.80
2018-03-18T04:55:06.543Z,-3.80
2018-03-18T04:56:09.044Z,-3.80
2018-03-18T04:57:11.686Z,-3.80
2018-03-18T04:58:14.167Z,-3.80
2018-03-18T04:59:16.675Z,-3.80
2018-03-18T05:00:19.152Z,-3.90
2018-03-18T05:01:22.431Z,-3.90
2018-03-18T05:02:24.944Z,-4.00
2018-03-18T05:03:27.432Z,-4.00
2018-03-18T05:04:29.935Z,-4.00
2018-03-18T05:05:32.439Z,-4.00
2018-03-18T05:06:34.949Z,-4.00
2018-03-18T05:07:37.467Z,-4.00
2018-03-18T05:08:39.944Z,-4.00
2018-03-18T05:09:42.424Z,-4.00
2018-03-18T05:10:45.683Z,-4.10
2018-03-18T05:11:48.171Z,-4.10
2018-03-18T05:12:51.669Z,-4.10
2018-03-18T05:13:54.913Z,-4.10
2018-03-18T05:14:57.412Z,-4.10
2018-03-18T05:15:59.877Z,-4.10
2018-03-18T05:17:02.366Z,-4.10
2018-03-18T05:18:05.626Z,-4.10
2018-03-18T05:19:08.099Z,-4.20
2018-03-18T05:20:10.750Z,-4.20
2018-03-18T05:21:13.801Z,-4.20
2018-03-18T05:22:16.274Z,-4.10
2018-03-18T05:23:18.804Z,-4.10
2018-03-18T05:24:21.270Z,-4.10
2018-03-18T05:25:23.744Z,-4.10
2018-03-18T05:26:26.235Z,-4.10
2018-03-18T05:27:29.472Z,-4.10
2018-03-18T05:28:31.956Z,-4.10
2018-03-18T05:29:34.433Z,-4.10
2018-03-18T05:30:36.904Z,-4.10
2018-03-18T05:31:39.386Z,-4.10
2018-03-18T05:32:41.911Z,-4.10
2018-03-18T05:33:44.403Z,-4.00
2018-03-18T05:34:46.887Z,-4.00
2018-03-18T05:35:49.382Z,-4.00
2018-03-18T05:36:52.640Z,-4.00
2018-03-18T05:37:55.126Z,-4.00
2018-03-18T05:38:57.635Z,-4.00
2018-03-18T05:40:00.109Z,-4.00
2018-03-18T05:41:02.587Z,-4.00
2018-03-18T05:42:05.062Z,-4.00
2018-03-18T05:43:07.793Z,-4.00
2018-03-18T05:44:10.310Z,-4.00
2018-03-18T05:45:13.017Z,-4.00
2018-03-18T05:46:15.512Z,-3.90
2018-03-18T05:47:17.985Z,-3.90
2018-03-18T05:48:20.480Z,-3.90
2018-03-18T05:49:22.954Z,-3.90
2018-03-18T05:50:25.444Z,-3.90
2018-03-18T05:51:27.929Z,-3.90
2018-03-18T05:52:30.410Z,-3.90
2018-03-18T05:53:32.955Z,-3.90
2018-03-18T05:54:35.447Z,-3.90
2018-03-18T05:55:37.967Z,-3.90
2018-03-18T05:56:40.461Z,-3.90
2018-03-18T05:57:42.936Z,-3.90
2018-03-18T05:58:45.403Z,-3.90
2018-03-18T05:59:47.888Z,-3.90
2018-03-18T06:00:50.369Z,-3.80
2018-03-18T06:01:52.861Z,-3.90
2018-03-18T06:02:55.345Z,-3.80
2018-03-18T06:03:58.600Z,-3.80
2018-03-18T06:05:01.084Z,-3.80
2018-03-18T06:06:03.604Z,-3.80
2018-03-18T06:07:06.085Z,-3.80
2018-03-18T06:08:08.574Z,-3.80
2018-03-18T06:09:11.178Z,-3.80
2018-03-18T06:10:13.672Z,-3.80
2018-03-18T06:11:16.166Z,-3.80
2018-03-18T06:12:18.661Z,-3.80
2018-03-18T06:13:21.369Z,-3.80
2018-03-18T06:14:24.696Z,-3.80
2018-03-18T06:15:27.301Z,-3.80
2018-03-18T06:16:29.770Z,-3.80
2018-03-18T06:17:32.256Z,-3.80
2018-03-18T06:18:34.793Z,-3.80
2018-03-18T06:19:38.006Z,-3.80
2018-03-18T06:20:40.488Z,-3.80
2018-03-18T06:21:42.995Z,-3.80
2018-03-18T06:22:45.469Z,-3.80
2018-03-18T06:23:47.958Z,-3.80
2018-03-18T06:24:50.596Z,-3.80
2018-03-18T06:25:53.061Z,-3.80
2018-03-18T06:26:56.309Z,-3.70
2018-03-18T06:27:58.805Z,-3.80
2018-03-18T06:29:01.333Z,-3.70
2018-03-18T06:30:03.838Z,-3.70
2018-03-18T06:31:06.414Z,-3.70
2018-03-18T06:32:09.021Z,-3.70
2018-03-18T06:33:11.582Z,-3.70
2018-03-18T06:34:14.820Z,-3.70
2018-03-18T06:35:17.294Z,-3.70
2018-03-18T06:36:19.829Z,-3.70
2018-03-18T06:37:22.392Z,-3.70
2018-03-18T06:38:25.681Z,-3.70
2018-03-18T06:39:28.160Z,-3.70
2018-03-18T06:40:31.327Z,-3.60
2018-03-18T06:41:33.849Z,-3.70
2018-03-18T06:42:36.363Z,-3.60
2018-03-18T06:43:38.858Z,-3.60
2018-03-18T06:44:41.340Z,-3.60
2018-03-18T06:45:43.859Z,-3.60
2018-03-18T06:46:46.384Z,-3.70
2018-03-18T06:47:48.936Z,-3.60
2018-03-18T06:48:51.456Z,-3.60
2018-03-18T06:49:53.967Z,-3.60
2018-03-18T06:50:57.217Z,-3.60
2018-03-18T06:51:59.711Z,-3.60
2018-03-18T06:53:02.196Z,-3.60
2018-03-18T06:54:05.452Z,-3.60
2018-03-18T06:55:07.936Z,-3.60
2018-03-18T06:56:10.599Z,-3.60
2018-03-18T06:57:13.100Z,-3.50
2018-03-18T06:58:15.627Z,-3.50
2018-03-18T06:59:18.103Z,-3.50
2018-03-18T07:00:20.592Z,-3.50
2018-03-18T07:01:23.090Z,-3.50
2018-03-18T07:02:26.357Z,-3.60
2018-03-18T07:03:28.826Z,-3.60
2018-03-18T07:04:31.313Z,-3.60
2018-03-18T07:05:35.491Z,-3.60
2018-03-18T07:06:37.968Z,-3.60
2018-03-18T07:07:40.935Z,-3.60
2018-03-18T07:08:44.308Z,-3.60
2018-03-18T07:09:46.788Z,-3.50
2018-03-18T07:10:49.270Z,-3.50
2018-03-18T07:11:51.741Z,-3.50
2018-03-18T07:12:54.236Z,-3.50
2018-03-18T07:13:57.510Z,-3.50
2018-03-18T07:15:00.009Z,-3.50
2018-03-18T07:16:03.275Z,-3.50
2018-03-18T07:17:05.772Z,-3.50
2018-03-18T07:18:09.035Z,-3.40
2018-03-18T07:19:12.228Z,-3.40
2018-03-18T07:20:15.471Z,-3.40
2018-03-18T07:21:17.960Z,-3.40
2018-03-18T07:22:20.428Z,-3.30
2018-03-18T07:23:22.986Z,-3.40
2018-03-18T07:24:25.461Z,-3.40
2018-03-18T07:25:28.027Z,-3.40
2018-03-18T07:26:31.244Z,-3.40
2018-03-18T07:27:33.840Z,-3.40
2018-03-18T07:28:36.364Z,-3.40
2018-03-18T07:29:38.850Z,-3.40
2018-03-18T07:30:41.338Z,-3.40
2018-03-18T07:31:43.822Z,-3.40
2018-03-18T07:32:47.075Z,-3.40
2018-03-18T07:33:49.636Z,-3.40
2018-03-18T07:34:52.322Z,-3.40
2018-03-18T07:35:54.869Z,-3.30
2018-03-18T07:36:57.366Z,-3.30
2018-03-18T07:37:59.858Z,-3.30
2018-03-18T07:39:02.381Z,-3.40
2018-03-18T07:40:04.922Z,-3.40
2018-03-18T07:41:08.176Z,-3.40
2018-03-18T07:42:11.095Z,-3.40
2018-03-18T07:43:14.414Z,-3.30
2018-03-18T07:44:16.907Z,-3.20
2018-03-18T07:45:19.463Z,-3.20
2018-03-18T07:46:21.975Z,-3.30
2018-03-18T07:47:25.289Z,-3.30
2018-03-18T07:48:27.764Z,-3.40
2018-03-18T07:49:30.249Z,-3.30
2018-03-18T07:50:32.750Z,-3.30
2018-03-18T07:51:35.262Z,-3.30
2018-03-18T07:52:38.544Z,-3.10
2018-03-18T07:53:41.072Z,-3.10
2018-03-18T07:54:43.582Z,-3.10
2018-03-18T07:55:46.895Z,-3.10
2018-03-18T07:56:49.438Z,-3.10
2018-03-18T07:57:51.993Z,-3.10
2018-03-18T07:58:54.524Z,-3.10
2018-03-18T07:59:57.046Z,-3.00
2018-03-18T08:00:59.555Z,-3.00
2018-03-18T08:02:02.905Z,-2.90
2018-03-18T08:03:05.419Z,-3.00
2018-03-18T08:04:07.934Z,-3.00
2018-03-18T08:05:11.387Z,-3.10
2018-03-18T08:06:23.840Z,-3.10
2018-03-18T08:07:26.437Z,-3.10
2018-03-18T08:08:28.913Z,-3.10
2018-03-18T08:09:31.385Z,-3.00
2018-03-18T08:10:33.863Z,-2.90
2018-03-18T08:11:36.483Z,-2.80
2018-03-18T08:12:38.979Z,-2.90
2018-03-18T08:13:41.460Z,-2.80
2018-03-18T08:14:44.694Z,-2.80
2018-03-18T08:15:47.192Z,-2.80
2018-03-18T08:16:49.859Z,-2.70
2018-03-18T08:17:52.338Z,-2.70
2018-03-18T08:18:55.588Z,-2.80
2018-03-18T08:19:58.081Z,-2.80
2018-03-18T08:21:00.590Z,-2.70
2018-03-18T08:22:03.070Z,-2.80
2018-03-18T08:23:06.337Z,-2.70
2018-03-18T08:24:08.815Z,-2.80
2018-03-18T08:25:12.102Z,-2.80
2018-03-18T08:26:14.662Z,-2.80
2018-03-18T08:27:17.128Z,-2.80
2018-03-18T08:28:19.634Z,-2.80
2018-03-18T08:29:22.129Z,-2.70
2018-03-18T08:30:24.625Z,-2.60
2018-03-18T08:31:27.156Z,-2.60
2018-03-18T08:32:29.637Z,-2.50
2018-03-18T08:33:32.144Z,-2.40
2018-03-18T08:34:34.633Z,-2.40
2018-03-18T08:35:37.133Z,-2.30
2018-03-18T08:36:40.441Z,-2.40
2018-03-18T08:37:42.937Z,-2.40
2018-03-18T08:38:45.443Z,-2.40
2018-03-18T08:39:48.695Z,-2.40
2018-03-18T08:40:51.192Z,-2.40
2018-03-18T08:41:53.709Z,-2.20
2018-03-18T08:42:56.212Z,-2.20
2018-03-18T08:43:58.733Z,-2.20
2018-03-18T08:45:01.992Z,-2.30
2018-03-18T08:46:04.524Z,-2.30
2018-03-18T08:47:07.152Z,-2.30
2018-03-18T08:48:09.949Z,-2.40
2018-03-18T08:49:12.551Z,-2.40
2018-03-18T08:50:15.080Z,-2.30
2018-03-18T08:51:17.585Z,-2.20
2018-03-18T08:52:20.098Z,-2.10
2018-03-18T08:53:23.446Z,-2.10
2018-03-18T08:54:25.940Z,-2.20
2018-03-18T08:55:28.427Z,-2.30
2018-03-18T08:56:30.904Z,-2.30
2018-03-18T08:57:33.452Z,-2.30
2018-03-18T08:58:35.950Z,-2.30
2018-03-18T08:59:38.998Z,-2.30
2018-03-18T09:00:41.482Z,-2.30
2018-03-18T09:01:44.022Z,-2.30
2018-03-18T09:02:46.532Z,-2.20
2018-03-18T09:03:49.078Z,-2.20
2018-03-18T09:04:51.568Z,-2.20
2018-03-18T09:05:54.084Z,-2.20
2018-03-18T09:06:56.613Z,-2.20
2018-03-18T09:07:59.156Z,-2.10
2018-03-18T09:09:01.735Z,-2.00
2018-03-18T09:10:04.276Z,-2.10
2018-03-18T09:11:06.805Z,-2.10
2018-03-18T09:12:11.203Z,-2.00
2018-03-18T09:13:13.737Z,-2.10
2018-03-18T09:14:16.250Z,-2.10
2018-03-18T09:15:18.744Z,-2.00
2018-03-18T09:16:21.238Z,-1.90
2018-03-18T09:17:24.574Z,-1.70
2018-03-18T09:18:31.169Z,-1.70
2018-03-18T09:19:49.501Z,-1.80
2018-03-18T09:20:52.997Z,-1.80
2018-03-18T09:21:56.519Z,-1.70
2018-03-18T09:22:59.830Z,-1.80
2018-03-18T09:24:03.327Z,-1.80
2018-03-18T09:25:06.493Z,-1.80
2018-03-18T09:26:09.883Z,-1.70
2018-03-18T09:27:15.091Z,-1.70
2018-03-18T09:28:18.383Z,-1.60
2018-03-18T09:29:20.913Z,-1.60
2018-03-18T09:30:23.922Z,-1.70
2018-03-18T09:31:26.554Z,-1.80
2018-03-18T09:32:29.187Z,-1.60
2018-03-18T09:33:32.395Z,-1.80
2018-03-18T09:34:36.239Z,-1.60
2018-03-18T09:35:38.756Z,-1.60
2018-03-18T09:36:42.374Z,-1.60
2018-03-18T09:37:44.892Z,-1.70
2018-03-18T09:38:47.414Z,-1.60
2018-03-18T09:39:49.951Z,-1.70
2018-03-18T09:40:52.493Z,-1.70
2018-03-18T09:41:55.880Z,-1.70
2018-03-18T09:42:58.417Z,-1.80
2018-03-18T09:44:01.685Z,-1.80
2018-03-18T09:45:04.223Z,-1.80
2018-03-18T09:46:07.645Z,-1.80
2018-03-18T09:47:10.409Z,-1.60
2018-03-18T09:48:13.224Z,-1.50
2018-03-18T09:49:16.483Z,-1.00
2018-03-18T09:50:19.872Z,-1.10
2018-03-18T09:51:24.696Z,-1.20
2018-03-18T09:52:27.192Z,-1.20
2018-03-18T09:53:30.495Z,-1.20
2018-03-18T09:54:32.998Z,-1.20
2018-03-18T09:55:36.081Z,-1.10
2018-03-18T09:56:38.593Z,-0.80
2018-03-18T09:57:41.373Z,-0.80
2018-03-18T09:58:43.881Z,-0.90
2018-03-18T09:59:46.377Z,-1.10
2018-03-18T10:00:49.751Z,-0.90
2018-03-18T10:01:52.321Z,-0.80
2018-03-18T10:03:01.865Z,-0.60
2018-03-18T10:04:04.374Z,-0.80
2018-03-18T10:05:06.947Z,-1.10
2018-03-18T10:06:09.695Z,-1.10
2018-03-18T10:07:19.024Z,-1.00
2018-03-18T10:08:21.557Z,-1.10
2018-03-18T10:09:24.073Z,-1.10
2018-03-18T10:10:26.585Z,-1.20
2018-03-18T10:11:43.467Z,-1.40
2018-03-18T10:12:51.331Z,-1.40
2018-03-18T10:13:53.839Z,-1.40
2018-03-18T10:14:57.071Z,-1.40
2018-03-18T10:15:59.645Z,-1.50
2018-03-18T10:17:05.416Z,-1.40
2018-03-18T10:18:10.059Z,-1.60
2018-03-18T10:19:12.795Z,-1.50
2018-03-18T10:20:16.272Z,-1.50
2018-03-18T10:21:18.764Z,-1.40
2018-03-18T10:22:22.207Z,-1.40
2018-03-18T10:23:24.869Z,-1.20
2018-03-18T10:24:28.424Z,-1.30
2018-03-18T10:25:30.906Z,-1.30
2018-03-18T10:26:36.248Z,-1.30
2018-03-18T10:27:39.854Z,-1.30
2018-03-18T10:28:42.499Z,-1.50
2018-03-18T10:29:46.340Z,-1.50
2018-03-18T10:30:48.997Z,-1.40
2018-03-18T10:31:53.068Z,-1.40
2018-03-18T10:32:57.586Z,-1.40
2018-03-18T10:34:00.858Z,-1.20
2018-03-18T10:35:04.926Z,-1.10
2018-03-18T10:36:07.426Z,-1.20
2018-03-18T10:37:10.098Z,-1.00
2018-03-18T10:38:12.797Z,-0.80
2018-03-18T10:39:16.090Z,-0.70
2018-03-18T10:40:19.421Z,-0.70
2018-03-18T10:41:21.964Z,-0.70
2018-03-18T10:42:24.483Z,-0.70
2018-03-18T10:43:27.074Z,-0.80
2018-03-18T10:44:30.516Z,-1.00
2018-03-18T10:45:33.473Z,-0.80
2018-03-18T10:46:37.480Z,-0.60
2018-03-18T10:47:40.019Z,-0.60
2018-03-18T10:48:42.589Z,-0.70
2018-03-18T10:49:45.056Z,-0.70
2018-03-18T10:50:47.537Z,-0.70
2018-03-18T10:51:50.066Z,-0.80
2018-03-18T10:52:52.569Z,-0.60
2018-03-18T10:53:55.835Z,-0.60
2018-03-18T10:54:58.357Z,-0.70
2018-03-18T10:56:01.638Z,-0.50
2018-03-18T10:57:04.167Z,-0.50
2018-03-18T10:58:06.745Z,-0.60
2018-03-18T10:59:09.279Z,-0.80
2018-03-18T11:00:27.959Z,-0.90
2018-03-18T11:01:49.047Z,-0.90
2018-03-18T11:02:51.548Z,-0.90
2018-03-18T11:03:59.844Z,-1.10
2018-03-18T11:05:02.378Z,-1.10
2018-03-18T11:06:04.973Z,-1.20
2018-03-18T11:07:07.500Z,-1.20
2018-03-18T11:08:10.313Z,-1.10
2018-03-18T11:09:12.907Z,-1.30
2018-03-18T11:10:15.426Z,-1.20
2018-03-18T11:11:17.936Z,-1.20
2018-03-18T11:12:20.439Z,-1.10
2018-03-18T11:13:22.953Z,-1.10
2018-03-18T11:14:26.272Z,-1.00
2018-03-18T11:15:28.812Z,-1.10
2018-03-18T11:16:32.132Z,-1.00
2018-03-18T11:17:34.712Z,-1.00
2018-03-18T11:18:37.245Z,-0.90
2018-03-18T11:19:40.580Z,-1.00
2018-03-18T11:20:43.224Z,-1.00
2018-03-18T11:21:45.875Z,-0.90
2018-03-18T11:22:49.199Z,-0.80
2018-03-18T11:23:51.746Z,-0.70
2018-03-18T11:24:54.240Z,-0.80
2018-03-18T11:25:56.753Z,-0.90
2018-03-18T11:26:59.255Z,-1.00
2018-03-18T11:28:02.560Z,-0.80
2018-03-18T11:29:05.062Z,-0.80
2018-03-18T11:30:07.628Z,-0.90
2018-03-18T11:31:11.070Z,-0.90
2018-03-18T11:32:13.591Z,-1.00
2018-03-18T11:33:16.112Z,-0.90
2018-03-18T11:34:23.666Z,-0.90
2018-03-18T11:35:26.241Z,-1.10
2018-03-18T11:36:28.748Z,-1.10
2018-03-18T11:37:32.040Z,-1.10
2018-03-18T11:38:35.375Z,-1.10
2018-03-18T11:39:37.844Z,-1.10
2018-03-18T11:40:40.498Z,-1.10
2018-03-18T11:41:43.018Z,-1.20
2018-03-18T11:42:45.540Z,-1.10
2018-03-18T11:43:48.046Z,-1.00
2018-03-18T11:44:50.557Z,-0.80
2018-03-18T11:45:53.864Z,-0.40
2018-03-18T11:46:56.433Z,-0.50
2018-03-18T11:47:58.951Z,-0.30
2018-03-18T11:49:01.668Z,-0.40
2018-03-18T11:50:04.240Z,-0.40
2018-03-18T11:51:07.525Z,-0.60
2018-03-18T11:52:10.187Z,-0.60
2018-03-18T11:53:13.602Z,-0.90
2018-03-18T11:54:16.151Z,-0.90
2018-03-18T11:55:19.447Z,-1.00
2018-03-18T11:56:22.755Z,-0.80
2018-03-18T11:57:25.326Z,-0.90
2018-03-18T11:58:29.942Z,-0.80
2018-03-18T11:59:34.049Z,-0.80
2018-03-18T12:00:37.315Z,-0.80
2018-03-18T12:01:39.851Z,-0.80
2018-03-18T12:02:42.365Z,-0.90
2018-03-18T12:03:44.883Z,-0.90
2018-03-18T12:04:47.402Z,-1.00
2018-03-18T12:05:50.697Z,-1.10
2018-03-18T12:06:54.029Z,-1.00
2018-03-18T12:07:56.557Z,-1.00
2018-03-18T12:09:00.014Z,-0.80
2018-03-18T12:10:02.730Z,-0.70
2018-03-18T12:11:05.241Z,-0.60
2018-03-18T12:12:07.765Z,-0.60
2018-03-18T12:13:11.219Z,-0.50
2018-03-18T12:14:13.941Z,-0.60
2018-03-18T12:15:16.510Z,-0.60
2018-03-18T12:16:19.056Z,-0.60
2018-03-18T12:17:22.365Z,-0.80
2018-03-18T12:18:24.913Z,-0.80
2018-03-18T12:19:28.967Z,-1.00
2018-03-18T12:20:31.507Z,-1.00
2018-03-18T12:21:34.814Z,-0.90
2018-03-18T12:22:37.341Z,-1.00
2018-03-18T12:23:39.858Z,-1.00
2018-03-18T12:24:42.451Z,-1.00
2018-03-18T12:25:45.072Z,-1.00
2018-03-18T12:26:48.361Z,-1.00
2018-03-18T12:27:51.667Z,-1.10
2018-03-18T12:28:54.173Z,-1.10
2018-03-18T12:29:56.685Z,-1.00
2018-03-18T12:31:00.031Z,-0.80
2018-03-18T12:32:02.585Z,-0.80
2018-03-18T12:33:05.130Z,-0.80
2018-03-18T12:34:07.665Z,-0.80
2018-03-18T12:35:10.279Z,-0.80
2018-03-18T12:36:13.685Z,-0.70
2018-03-18T12:37:16.211Z,-0.80
2018-03-18T12:38:18.749Z,-0.70
2018-03-18T12:39:21.309Z,-0.70
2018-03-18T12:40:31.505Z,-0.70
2018-03-18T12:41:34.048Z,-0.80
2018-03-18T12:42:48.482Z,-0.90
2018-03-18T12:43:50.992Z,-0.80
2018-03-18T12:44:53.506Z,-0.70
2018-03-18T12:45:56.035Z,-0.70
2018-03-18T12:46:58.640Z,-0.70
2018-03-18T12:48:01.178Z,-0.70
2018-03-18T12:49:03.725Z,-0.70
2018-03-18T12:50:06.231Z,-0.60
2018-03-18T12:51:08.794Z,-0.70
2018-03-18T12:52:11.476Z,-0.80
2018-03-18T12:53:14.043Z,-0.70
2018-03-18T12:54:16.590Z,-0.70
2018-03-18T12:55:19.106Z,-0.70
2018-03-18T12:56:22.393Z,-0.60
2018-03-18T12:57:25.686Z,-0.60
2018-03-18T12:58:28.959Z,-0.50
2018-03-18T12:59:31.480Z,-0.50
2018-03-18T13:00:34.019Z,-0.40
2018-03-18T13:01:37.418Z,-0.30
2018-03-18T13:02:39.933Z,-0.30
2018-03-18T13:03:42.474Z,-0.20
2018-03-18T13:04:45.016Z,-0.10
2018-03-18T13:05:48.294Z,-0.10
2018-03-18T13:06:51.565Z,-0.20
2018-03-18T13:07:54.088Z,-0.20
2018-03-18T13:08:56.706Z,-0.20
2018-03-18T13:09:59.252Z,-0.30
2018-03-18T13:11:01.782Z,-0.30
2018-03-18T13:12:05.070Z,-0.10
2018-03-18T13:13:08.439Z,-0.10
2018-03-18T13:14:11.039Z,-0.10
2018-03-18T13:15:13.613Z,-0.20
2018-03-18T13:16:16.929Z,-0.40
2018-03-18T13:17:19.481Z,-0.40
2018-03-18T13:18:22.026Z,-0.40
2018-03-18T13:19:24.563Z,-0.40
2018-03-18T13:20:27.137Z,-0.30
2018-03-18T13:21:29.667Z,-0.30
2018-03-18T13:22:32.988Z,-0.40
2018-03-18T13:23:35.568Z,-0.40
2018-03-18T13:24:38.262Z,-0.40
2018-03-18T13:25:40.802Z,-0.40
2018-03-18T13:26:43.508Z,-0.40
2018-03-18T13:27:46.038Z,-0.40
2018-03-18T13:28:48.572Z,-0.50
2018-03-18T13:29:51.930Z,-0.50
2018-03-18T13:30:55.311Z,-0.30
2018-03-18T13:31:57.837Z,-0.30
2018-03-18T13:33:01.156Z,-0.40
2018-03-18T13:34:03.714Z,-0.40
2018-03-18T13:35:06.250Z,-0.30
2018-03-18T13:36:09.600Z,-0.10
2018-03-18T13:37:12.300Z,-0.20
2018-03-18T13:38:14.852Z,-0.10
2018-03-18T13:39:17.386Z,0.00
2018-03-18T13:40:19.990Z,-0.10